EST,Max TemperatureF,Mean TemperatureF,Min TemperatureF,Max Dew PointF,MeanDew PointF,Min DewpointF,Max Humidity, Mean Humidity, Min Humidity, Max Sea Level PressureIn, Mean Sea Level PressureIn, Min Sea Level PressureIn, Max VisibilityMiles, Mean VisibilityMiles, Min VisibilityMiles, Max Wind SpeedMPH, Mean Wind SpeedMPH, Max Gust SpeedMPH,PrecipitationIn, CloudCover, Events, WindDirDegrees
2012-12-1,34,29,26,32,24,16,96,82,56,30.64,30.58,30.51,,,,13,6,,0.06,,,16
2012-12-2,52,42,32,47,40,30,100,88,74,30.49,30.28,30.06,,,,22,11,30,0.00,,,168
2012-12-3,57,50,43,46,41,36,90,73,49,30.31,30.17,30.05,,,,20,13,30,0.00,,,309
2012-12-4,55,48,41,53,46,39,97,94,89,30.33,30.23,30.01,,,,22,12,33,0.03,,,167
2012-12-5,55,44,30,54,36,14,93,66,49,30.14,29.97,29.87,,,,23,18,34,0.02,,,281
2012-12-6,37,32,26,18,14,13,63,50,39,30.33,30.28,30.15,,,,16,10,26,0.00,,,290
2012-12-7,43,36,30,40,30,18,96,75,59,30.31,30.19,30.06,,,,13,10,,0.02,,,191
2012-12-8,45,43,41,44,42,39,97,96,92,30.05,29.96,29.88,,,,12,7,21,0.35,,,274
2012-12-9,45,42,39,43,35,27,96,78,58,30.30,30.20,29.99,,,,15,12,22,0.08,,,359
2012-12-10,59,49,39,58,51,38,100,96,92,30.12,29.75,29.53,,,,22,14,30,0.57,,,191
2012-12-11,55,44,30,53,32,20,93,67,51,30.17,29.89,29.57,,,,16,11,23,0.00,,,295
2012-12-12,37,32,27,22,20,18,72,61,48,30.45,30.35,30.18,,,,15,9,,0.00,,,305
2012-12-13,41,36,30,25,22,20,70,59,45,30.49,30.41,30.31,,,,10,6,,0.00,,,296
2012-12-14,46,38,30,25,22,18,72,57,34,30.28,30.18,30.07,,,,15,11,26,0.00,,,256
2012-12-15,39,34,30,26,22,19,79,64,45,30.34,30.29,30.19,,,,15,10,21,0.00,,,30
2012-12-16,36,32,30,35,27,20,97,80,64,30.34,30.22,30.08,,,,15,11,22,0.24,,,97
2012-12-17,45,41,37,43,39,35,100,95,92,30.06,29.96,29.80,,,,18,14,31,0.64,,,65
2012-12-18,50,46,41,49,44,39,97,95,93,29.76,29.52,29.42,,,,20,12,26,0.63,,,305
2012-12-19,43,40,36,38,31,27,89,72,58,30.04,29.69,29.46,,,,28,18,39,0.00,,,314
2012-12-20,41,36,30,34,29,27,96,78,57,30.22,30.14,30.05,,,,12,8,18,0.00,,,27
2012-12-21,52,44,35,51,39,29,97,87,70,29.99,29.43,29.11,,,,32,20,59,0.87,,,154
2012-12-22,36,32,27,29,21,14,79,64,46,29.65,29.42,29.24,,,,28,17,41,0.01,,,261
2012-12-23,37,32,26,21,18,15,69,56,44,29.89,29.82,29.66,,,,23,15,44,0.00,,,259
2012-12-24,37,32,28,19,17,14,66,52,41,30.08,30.02,29.90,,,,16,11,23,0.00,,,270
2012-12-25,33,30,25,28,24,16,92,80,52,30.23,30.08,29.99,,,,14,8,,0.04,,,355
2012-12-26,35,27,19,31,21,11,96,73,61,30.33,30.21,29.91,,,,22,12,34,0.28,,,36
2012-12-27,46,37,28,44,36,27,100,96,88,29.84,29.46,29.23,,,,33,23,62,1.66,,,16
2012-12-28,34,30,25,26,21,17,89,73,61,30.03,29.89,29.64,,,,25,17,34,0.00,,,300
2012-12-29,34,30,25,33,25,21,96,85,72,30.03,29.77,29.38,,,,17,10,32,0.98,,,2
2012-12-30,28,24,18,26,17,8,92,74,55,29.98,29.69,29.42,,,,32,18,48,0.07,,,306
2012-12-31,30,24,18,21,16,7,71,67,62,30.05,29.95,29.80,,,,18,14,30,0.00,,,252